createdAt,value
2023-03-07T00:00:30.876Z,3.66
2023-03-07T00:01:03.142Z,3.64
2023-03-07T00:01:34.892Z,3.62
2023-03-07T00:02:06.536Z,3.63
2023-03-07T00:02:38.794Z,3.62
2023-03-07T00:03:15.838Z,3.60
2023-03-07T00:03:47.539Z,3.62
2023-03-07T00:04:19.189Z,3.61
2023-03-07T00:05:21.323Z,3.56
2023-03-07T00:06:09.835Z,3.55
2023-03-07T00:06:41.491Z,3.54
2023-03-07T00:07:14.275Z,3.54
2023-03-07T00:07:45.946Z,3.55
2023-03-07T00:08:17.619Z,3.51
2023-03-07T00:08:54.505Z,3.48
2023-03-07T00:09:26.182Z,3.47
2023-03-07T00:09:58.726Z,3.52
2023-03-07T00:10:30.738Z,3.53
2023-03-07T00:11:07.212Z,3.52
2023-03-07T00:11:38.836Z,3.53
2023-03-07T00:12:11.265Z,3.47
2023-03-07T00:12:44.151Z,3.46
2023-03-07T00:13:15.785Z,3.38
2023-03-07T00:13:47.800Z,3.37
2023-03-07T00:14:19.471Z,3.34
2023-03-07T00:14:51.231Z,3.34
2023-03-07T00:15:22.971Z,3.28
2023-03-07T00:15:54.658Z,3.31
2023-03-07T00:16:26.471Z,3.32
2023-03-07T00:16:58.133Z,3.33
2023-03-07T00:17:29.851Z,3.33
2023-03-07T00:18:01.532Z,3.34
2023-03-07T00:18:33.739Z,3.31
2023-03-07T00:19:05.371Z,3.23
2023-03-07T00:19:37.078Z,3.12
2023-03-07T00:20:16.500Z,3.11
2023-03-07T00:21:00.224Z,3.15
2023-03-07T00:21:32.452Z,3.18
2023-03-07T00:22:04.230Z,3.19
2023-03-07T00:22:36.168Z,3.19
2023-03-07T00:23:07.804Z,3.17
2023-03-07T00:23:41.518Z,3.13
2023-03-07T00:24:13.209Z,3.11
2023-03-07T00:24:44.846Z,3.11
2023-03-07T00:25:16.578Z,3.12
2023-03-07T00:25:57.562Z,3.11
2023-03-07T00:26:29.254Z,3.04
2023-03-07T00:27:01.004Z,3.00
2023-03-07T00:27:34.082Z,2.99
2023-03-07T00:28:05.768Z,2.98
2023-03-07T00:28:37.446Z,2.97
2023-03-07T00:29:10.623Z,2.96
2023-03-07T00:29:42.283Z,2.97
2023-03-07T00:30:13.984Z,2.92
2023-03-07T00:30:45.631Z,2.99
2023-03-07T00:31:19.483Z,3.01
2023-03-07T00:31:51.230Z,2.99
2023-03-07T00:32:23.013Z,3.00
2023-03-07T00:32:54.719Z,3.01
2023-03-07T00:33:26.517Z,3.03
2023-03-07T00:33:58.325Z,3.02
2023-03-07T00:34:29.961Z,3.04
2023-03-07T00:35:02.407Z,3.04
2023-03-07T00:35:34.090Z,3.05
2023-03-07T00:36:12.836Z,3.03
2023-03-07T00:36:44.496Z,3.03
2023-03-07T00:37:16.391Z,3.03
2023-03-07T00:37:48.027Z,3.01
2023-03-07T00:38:19.685Z,3.05
2023-03-07T00:38:51.976Z,3.09
2023-03-07T00:39:23.704Z,3.08
2023-03-07T00:39:55.369Z,3.09
2023-03-07T00:40:27.049Z,3.11
2023-03-07T00:41:05.248Z,3.10
2023-03-07T00:41:36.913Z,3.10
2023-03-07T00:42:09.671Z,3.12
2023-03-07T00:42:41.323Z,3.12
2023-03-07T00:43:13.034Z,3.10
2023-03-07T00:43:47.174Z,3.10
2023-03-07T00:44:18.912Z,3.06
2023-03-07T00:44:50.557Z,3.06
2023-03-07T00:45:22.202Z,3.06
2023-03-07T00:45:54.615Z,3.09
2023-03-07T00:46:26.573Z,3.13
2023-03-07T00:46:58.728Z,3.13
2023-03-07T00:47:30.361Z,3.13
2023-03-07T00:48:02.021Z,3.15
2023-03-07T00:48:35.699Z,3.13
2023-03-07T00:49:07.342Z,3.16
2023-03-07T00:49:38.972Z,3.21
2023-03-07T00:50:10.927Z,3.22
2023-03-07T00:50:42.550Z,3.20
2023-03-07T00:51:16.449Z,3.23
2023-03-07T00:51:48.500Z,3.22
2023-03-07T00:52:20.179Z,3.24
2023-03-07T00:52:51.832Z,3.24
2023-03-07T00:53:24.894Z,3.26
2023-03-07T00:53:56.572Z,3.25
2023-03-07T00:54:28.241Z,3.26
2023-03-07T00:55:00.194Z,3.28
2023-03-07T00:55:31.851Z,3.29
2023-03-07T00:56:05.663Z,3.26
2023-03-07T00:56:37.372Z,3.27
2023-03-07T00:57:09.007Z,3.29
2023-03-07T00:57:40.670Z,3.30
2023-03-07T00:58:12.317Z,3.28
2023-03-07T00:58:44.613Z,3.30
2023-03-07T00:59:16.395Z,3.30
2023-03-07T00:59:48.073Z,3.29
2023-03-07T01:00:19.811Z,3.29
2023-03-07T01:00:51.751Z,3.29
2023-03-07T01:01:25.723Z,3.30
2023-03-07T01:01:57.375Z,3.34
2023-03-07T01:02:29.043Z,3.32
2023-03-07T01:03:02.171Z,3.33
2023-03-07T01:03:35.065Z,3.30
2023-03-07T01:04:06.781Z,3.30
2023-03-07T01:04:38.473Z,3.30
2023-03-07T01:05:10.764Z,3.31
2023-03-07T01:05:42.517Z,3.30
2023-03-07T01:06:16.254Z,3.31
2023-03-07T01:06:47.992Z,3.30
2023-03-07T01:07:19.738Z,3.31
2023-03-07T01:07:51.488Z,3.30
2023-03-07T01:08:24.355Z,3.31
2023-03-07T01:08:59.199Z,3.33
2023-03-07T01:09:30.852Z,3.36
2023-03-07T01:10:02.581Z,3.34
2023-03-07T01:10:34.325Z,3.36
2023-03-07T01:11:07.117Z,3.33
2023-03-07T01:11:39.341Z,3.30
2023-03-07T01:12:11.035Z,3.25
2023-03-07T01:12:43.909Z,3.20
2023-03-07T01:13:17.555Z,3.18
2023-03-07T01:13:49.258Z,3.16
2023-03-07T01:14:20.984Z,3.18
2023-03-07T01:14:52.710Z,3.22
2023-03-07T01:15:24.357Z,3.22
2023-03-07T01:15:56.444Z,3.19
2023-03-07T01:16:36.681Z,3.17
2023-03-07T01:17:08.330Z,3.21
2023-03-07T01:17:40.053Z,3.21
2023-03-07T01:18:12.455Z,3.23
2023-03-07T01:18:45.913Z,3.21
2023-03-07T01:19:17.866Z,3.20
2023-03-07T01:19:49.553Z,3.23
2023-03-07T01:20:21.224Z,3.24
2023-03-07T01:20:52.888Z,3.23
2023-03-07T01:21:29.222Z,3.23
2023-03-07T01:22:01.256Z,3.26
2023-03-07T01:22:32.905Z,3.29
2023-03-07T01:23:05.622Z,3.26
2023-03-07T01:23:37.282Z,3.27
2023-03-07T01:24:13.581Z,3.26
2023-03-07T01:24:45.273Z,3.26
2023-03-07T01:25:17.091Z,3.26
2023-03-07T01:25:48.779Z,3.24
2023-03-07T01:26:24.233Z,3.26
2023-03-07T01:26:55.865Z,3.29
2023-03-07T01:27:27.494Z,3.25
2023-03-07T01:27:59.134Z,3.25
2023-03-07T01:28:30.786Z,3.25
2023-03-07T01:29:04.834Z,3.24
2023-03-07T01:29:36.537Z,3.21
2023-03-07T01:30:09.562Z,3.19
2023-03-07T01:30:41.838Z,3.20
2023-03-07T01:31:13.727Z,3.19
2023-03-07T01:31:45.511Z,3.18
2023-03-07T01:32:17.632Z,3.19
2023-03-07T01:32:58.383Z,3.19
2023-03-07T01:33:30.057Z,3.20
2023-03-07T01:34:02.767Z,3.22
2023-03-07T01:34:34.478Z,3.22
2023-03-07T01:35:06.447Z,3.23
2023-03-07T01:35:39.634Z,3.18
2023-03-07T01:36:20.895Z,3.15
2023-03-07T01:36:52.680Z,3.15
2023-03-07T01:37:24.389Z,3.11
2023-03-07T01:37:56.531Z,3.10
2023-03-07T01:38:29.009Z,3.11
2023-03-07T01:39:13.102Z,3.10
2023-03-07T01:39:45.397Z,3.11
2023-03-07T01:40:17.816Z,3.10
2023-03-07T01:40:49.500Z,3.09
2023-03-07T01:41:21.612Z,3.10
2023-03-07T01:41:53.286Z,3.10
2023-03-07T01:42:25.121Z,3.10
2023-03-07T01:43:25.122Z,3.14
2023-03-07T01:43:56.809Z,3.11
2023-03-07T01:44:28.556Z,3.12
2023-03-07T01:45:07.333Z,3.08
2023-03-07T01:45:59.210Z,3.05
2023-03-07T01:46:53.460Z,3.00
2023-03-07T01:47:25.138Z,3.02
2023-03-07T01:47:56.782Z,3.00
2023-03-07T01:48:28.425Z,2.98
2023-03-07T01:49:07.759Z,2.98
2023-03-07T01:49:46.219Z,2.99
2023-03-07T01:50:18.370Z,2.99
2023-03-07T01:50:50.132Z,2.97
2023-03-07T01:51:22.571Z,2.99
2023-03-07T01:52:12.014Z,2.97
2023-03-07T01:52:48.888Z,2.97
2023-03-07T01:53:21.623Z,2.96
2023-03-07T01:53:55.978Z,2.99
2023-03-07T01:54:30.511Z,2.97
2023-03-07T01:55:07.589Z,2.93
2023-03-07T01:55:39.454Z,2.96
2023-03-07T01:56:11.470Z,2.97
2023-03-07T01:56:45.261Z,2.97
2023-03-07T01:57:19.761Z,2.95
2023-03-07T01:57:54.715Z,2.94
2023-03-07T01:58:26.498Z,2.95
2023-03-07T01:58:58.698Z,2.96
2023-03-07T01:59:35.360Z,2.96
2023-03-07T02:00:12.311Z,2.95
2023-03-07T02:00:45.474Z,2.98
2023-03-07T02:01:17.857Z,3.00
2023-03-07T02:01:51.560Z,2.99
2023-03-07T02:02:24.818Z,3.04
2023-03-07T02:03:02.472Z,3.04
2023-03-07T02:03:47.039Z,3.05
2023-03-07T02:04:28.495Z,3.05
2023-03-07T02:05:04.506Z,3.05
2023-03-07T02:05:41.208Z,3.04
2023-03-07T02:06:13.310Z,3.09
2023-03-07T02:06:44.973Z,3.11
2023-03-07T02:07:20.692Z,3.09
2023-03-07T02:07:54.138Z,3.11
2023-03-07T02:08:29.595Z,3.12
2023-03-07T02:09:03.213Z,3.15
2023-03-07T02:09:36.939Z,3.16
2023-03-07T02:10:11.621Z,3.18
2023-03-07T02:10:43.749Z,3.19
2023-03-07T02:11:16.543Z,3.19
2023-03-07T02:11:49.990Z,3.20
2023-03-07T02:12:23.133Z,3.20
2023-03-07T02:12:54.911Z,3.18
2023-03-07T02:13:26.618Z,3.19
2023-03-07T02:13:58.275Z,3.23
2023-03-07T02:14:29.960Z,3.25
2023-03-07T02:15:04.126Z,3.25
2023-03-07T02:15:36.377Z,3.24
2023-03-07T02:16:08.725Z,3.24
2023-03-07T02:16:41.262Z,3.25
2023-03-07T02:17:13.390Z,3.23
2023-03-07T02:17:45.898Z,3.24
2023-03-07T02:18:22.907Z,3.24
2023-03-07T02:18:54.522Z,3.24
2023-03-07T02:19:45.858Z,3.22
2023-03-07T02:20:46.675Z,3.24
2023-03-07T02:21:49.453Z,3.16
2023-03-07T02:22:21.288Z,3.14
2023-03-07T02:22:54.860Z,3.12
2023-03-07T02:23:55.504Z,3.13
2023-03-07T02:24:27.115Z,3.08
2023-03-07T02:25:11.695Z,3.07
2023-03-07T02:26:09.114Z,3.03
2023-03-07T02:26:44.288Z,3.05
2023-03-07T02:27:16.070Z,2.98
2023-03-07T02:27:53.113Z,3.01
2023-03-07T02:28:25.804Z,3.02
2023-03-07T02:28:59.908Z,3.03
2023-03-07T02:29:31.786Z,3.00
2023-03-07T02:30:04.985Z,3.00
2023-03-07T02:30:38.214Z,3.01
2023-03-07T02:31:11.660Z,3.00
2023-03-07T02:31:43.410Z,3.02
2023-03-07T02:32:15.414Z,3.02
2023-03-07T02:32:47.128Z,3.03
2023-03-07T02:33:19.033Z,3.04
2023-03-07T02:33:51.288Z,2.99
2023-03-07T02:34:26.394Z,2.98
2023-03-07T02:34:58.254Z,3.00
2023-03-07T02:35:30.321Z,3.00
2023-03-07T02:36:15.003Z,2.99
2023-03-07T02:36:48.010Z,2.98
2023-03-07T02:37:27.580Z,3.00
2023-03-07T02:38:03.983Z,3.02
2023-03-07T02:38:40.069Z,3.01
2023-03-07T02:39:12.241Z,2.97
2023-03-07T02:39:46.315Z,2.96
2023-03-07T02:40:22.088Z,2.94
2023-03-07T02:40:56.910Z,2.92
2023-03-07T02:41:32.934Z,2.96
2023-03-07T02:42:11.276Z,2.96
2023-03-07T02:42:44.219Z,2.96
2023-03-07T02:43:16.447Z,2.93
2023-03-07T02:43:48.130Z,2.97
2023-03-07T02:44:19.732Z,2.96
2023-03-07T02:45:03.496Z,2.96
2023-03-07T02:45:35.361Z,2.97
2023-03-07T02:46:07.115Z,2.97
2023-03-07T02:46:39.103Z,2.94
2023-03-07T02:47:10.890Z,2.95
2023-03-07T02:47:45.013Z,2.96
2023-03-07T02:48:16.750Z,2.97
2023-03-07T02:48:48.459Z,2.93
2023-03-07T02:49:20.141Z,2.94
2023-03-07T02:49:52.021Z,2.94
2023-03-07T02:50:23.699Z,2.95
2023-03-07T02:50:55.362Z,2.92
2023-03-07T02:51:27.073Z,2.97
2023-03-07T02:52:00.699Z,2.94
2023-03-07T02:52:32.400Z,2.90
2023-03-07T02:53:04.665Z,2.90
2023-03-07T02:53:36.325Z,2.91
2023-03-07T02:54:08.462Z,2.89
2023-03-07T02:54:40.138Z,2.85
2023-03-07T02:55:12.806Z,2.86
2023-03-07T02:55:44.578Z,2.82
2023-03-07T02:56:16.686Z,2.81
2023-03-07T02:56:48.352Z,2.85
2023-03-07T02:57:20.062Z,2.83
2023-03-07T02:57:51.705Z,2.84
2023-03-07T02:58:23.396Z,2.83
2023-03-07T02:58:55.085Z,2.83
2023-03-07T02:59:26.808Z,2.84
2023-03-07T02:59:58.439Z,2.83
2023-03-07T03:00:30.377Z,2.82
2023-03-07T03:01:02.187Z,2.85
2023-03-07T03:01:33.906Z,2.84
2023-03-07T03:02:05.791Z,2.82
2023-03-07T03:02:38.091Z,2.81
2023-03-07T03:03:09.831Z,2.76
2023-03-07T03:03:41.464Z,2.77
2023-03-07T03:04:13.124Z,2.76
2023-03-07T03:04:44.805Z,2.76
2023-03-07T03:05:16.542Z,2.74
2023-03-07T03:05:48.157Z,2.76
2023-03-07T03:06:19.796Z,2.74
2023-03-07T03:06:51.513Z,2.75
2023-03-07T03:07:23.200Z,2.76
2023-03-07T03:07:55.019Z,2.74
2023-03-07T03:08:26.678Z,2.79
2023-03-07T03:08:58.312Z,2.78
2023-03-07T03:09:31.573Z,2.81
2023-03-07T03:10:04.313Z,2.80
2023-03-07T03:10:35.960Z,2.77
2023-03-07T03:11:07.631Z,2.79
2023-03-07T03:11:39.320Z,2.75
2023-03-07T03:12:10.954Z,2.81
2023-03-07T03:12:42.771Z,2.81
2023-03-07T03:13:14.396Z,2.76
2023-03-07T03:13:46.051Z,2.76
2023-03-07T03:14:17.731Z,2.74
2023-03-07T03:14:49.443Z,2.75
2023-03-07T03:15:21.126Z,2.78
2023-03-07T03:15:57.382Z,2.76
2023-03-07T03:16:29.099Z,2.76
2023-03-07T03:17:00.861Z,2.73
2023-03-07T03:17:32.492Z,2.75
2023-03-07T03:18:04.207Z,2.72
2023-03-07T03:18:35.952Z,2.73
2023-03-07T03:19:07.619Z,2.71
2023-03-07T03:19:39.256Z,2.72
2023-03-07T03:20:12.878Z,2.75
2023-03-07T03:20:44.565Z,2.73
2023-03-07T03:21:16.223Z,2.74
2023-03-07T03:21:48.756Z,2.72
2023-03-07T03:22:20.651Z,2.75
2023-03-07T03:22:53.016Z,2.76
2023-03-07T03:23:27.560Z,2.72
2023-03-07T03:23:59.256Z,2.67
2023-03-07T03:24:30.913Z,2.65
2023-03-07T03:25:02.570Z,2.63
2023-03-07T03:25:34.243Z,2.65
2023-03-07T03:26:08.477Z,2.65
2023-03-07T03:26:40.288Z,2.63
2023-03-07T03:27:11.939Z,2.64
2023-03-07T03:27:43.665Z,2.65
2023-03-07T03:28:15.291Z,2.66
2023-03-07T03:28:46.996Z,2.64
2023-03-07T03:29:18.680Z,2.69
2023-03-07T03:29:50.401Z,2.68
2023-03-07T03:30:22.153Z,2.70
2023-03-07T03:31:02.472Z,2.72
2023-03-07T03:31:35.124Z,2.70
2023-03-07T03:32:07.582Z,2.70
2023-03-07T03:32:40.202Z,2.75
2023-03-07T03:33:12.101Z,2.73
2023-03-07T03:33:44.668Z,2.76
2023-03-07T03:34:16.513Z,2.74
2023-03-07T03:34:48.162Z,2.73
2023-03-07T03:35:19.865Z,2.73
2023-03-07T03:35:51.544Z,2.70
2023-03-07T03:36:26.044Z,2.73
2023-03-07T03:36:57.684Z,2.74
2023-03-07T03:37:29.351Z,2.76
2023-03-07T03:38:00.970Z,2.75
2023-03-07T03:38:33.434Z,2.76
2023-03-07T03:39:10.860Z,2.75
2023-03-07T03:39:42.593Z,2.80
2023-03-07T03:40:14.750Z,2.85
2023-03-07T03:40:46.546Z,2.81
2023-03-07T03:41:18.201Z,2.79
2023-03-07T03:41:49.901Z,2.81
2023-03-07T03:42:21.589Z,2.86
2023-03-07T03:42:53.558Z,2.84
2023-03-07T03:43:25.208Z,2.86
2023-03-07T03:43:57.569Z,2.86
2023-03-07T03:44:29.798Z,2.86
2023-03-07T03:45:01.460Z,2.86
2023-03-07T03:45:33.320Z,2.83
2023-03-07T03:46:05.360Z,2.85
2023-03-07T03:46:37.398Z,2.88
2023-03-07T03:47:09.075Z,2.91
2023-03-07T03:47:40.980Z,2.88
2023-03-07T03:48:12.620Z,2.92
2023-03-07T03:48:44.622Z,2.92
2023-03-07T03:49:16.959Z,2.91
2023-03-07T03:49:48.683Z,2.91
2023-03-07T03:50:20.320Z,2.92
2023-03-07T03:51:04.983Z,2.96
2023-03-07T03:51:36.681Z,2.95
2023-03-07T03:52:09.127Z,2.97
2023-03-07T03:52:40.888Z,2.95
2023-03-07T03:53:12.513Z,2.89
2023-03-07T03:53:44.239Z,2.92
2023-03-07T03:54:15.864Z,2.94
2023-03-07T03:54:47.468Z,2.92
2023-03-07T03:55:19.158Z,2.90
2023-03-07T03:55:50.794Z,2.82
2023-03-07T03:56:23.880Z,2.82
2023-03-07T03:56:55.548Z,2.83
2023-03-07T03:57:27.321Z,2.82
2023-03-07T03:57:59.220Z,2.83
2023-03-07T03:58:30.963Z,2.81
2023-03-07T03:59:02.667Z,2.80
2023-03-07T03:59:34.297Z,2.79
2023-03-07T04:00:09.028Z,2.78
2023-03-07T04:00:40.663Z,2.78
2023-03-07T04:01:12.928Z,2.78
2023-03-07T04:01:44.691Z,2.77
2023-03-07T04:02:16.488Z,2.77
2023-03-07T04:02:48.286Z,2.73
2023-03-07T04:03:19.964Z,2.74
2023-03-07T04:03:53.507Z,2.73
2023-03-07T04:04:25.235Z,2.75
2023-03-07T04:04:56.902Z,2.74
2023-03-07T04:05:28.540Z,2.71
2023-03-07T04:06:05.833Z,2.73
2023-03-07T04:06:37.474Z,2.74
2023-03-07T04:07:09.190Z,2.74
2023-03-07T04:07:40.877Z,2.76
2023-03-07T04:08:12.519Z,2.79
2023-03-07T04:08:46.418Z,2.78
2023-03-07T04:09:18.122Z,2.76
2023-03-07T04:09:50.020Z,2.75
2023-03-07T04:10:21.758Z,2.78
2023-03-07T04:10:53.395Z,2.78
2023-03-07T04:11:25.948Z,2.81
2023-03-07T04:11:57.907Z,2.80
2023-03-07T04:12:29.520Z,2.79
2023-03-07T04:13:01.156Z,2.78
2023-03-07T04:13:34.887Z,2.76
2023-03-07T04:14:06.616Z,2.74
2023-03-07T04:14:38.231Z,2.72
2023-03-07T04:15:10.311Z,2.70
2023-03-07T04:15:42.025Z,2.68
2023-03-07T04:16:13.869Z,2.67
2023-03-07T04:16:46.961Z,2.66
2023-03-07T04:17:18.712Z,2.63
2023-03-07T04:17:50.339Z,2.62
2023-03-07T04:18:22.792Z,2.62
2023-03-07T04:18:55.412Z,2.61
2023-03-07T04:19:29.353Z,2.59
2023-03-07T04:20:01.139Z,2.61
2023-03-07T04:20:32.791Z,2.59
2023-03-07T04:21:06.007Z,2.57
2023-03-07T04:21:37.755Z,2.57
2023-03-07T04:22:11.309Z,2.56
2023-03-07T04:22:43.778Z,2.59
2023-03-07T04:23:16.104Z,2.58
2023-03-07T04:23:50.217Z,2.58
2023-03-07T04:24:21.879Z,2.57
2023-03-07T04:24:53.529Z,2.60
2023-03-07T04:25:25.149Z,2.57
2023-03-07T04:25:59.414Z,2.59
2023-03-07T04:26:31.056Z,2.59
2023-03-07T04:27:02.735Z,2.57
2023-03-07T04:27:35.303Z,2.59
2023-03-07T04:28:07.033Z,2.60
2023-03-07T04:28:45.033Z,2.60
2023-03-07T04:29:16.836Z,2.58
2023-03-07T04:29:48.490Z,2.55
2023-03-07T04:30:20.134Z,2.59
2023-03-07T04:30:53.242Z,2.59
2023-03-07T04:31:27.364Z,2.55
2023-03-07T04:31:59.365Z,2.54
2023-03-07T04:32:31.509Z,2.55
2023-03-07T04:33:03.260Z,2.55
2023-03-07T04:33:34.981Z,2.56
2023-03-07T04:34:06.671Z,2.55
2023-03-07T04:34:38.454Z,2.56
2023-03-07T04:35:10.140Z,2.57
2023-03-07T04:35:43.019Z,2.59
2023-03-07T04:36:18.596Z,2.61
2023-03-07T04:36:50.606Z,2.60
2023-03-07T04:37:22.418Z,2.59
2023-03-07T04:37:54.059Z,2.58
2023-03-07T04:38:25.850Z,2.55
2023-03-07T04:38:57.532Z,2.53
2023-03-07T04:39:29.223Z,2.54
2023-03-07T04:40:00.926Z,2.53
2023-03-07T04:40:33.080Z,2.53
2023-03-07T04:41:09.220Z,2.54
2023-03-07T04:41:41.204Z,2.53
2023-03-07T04:42:12.827Z,2.56
2023-03-07T04:42:44.507Z,2.54
2023-03-07T04:43:16.253Z,2.54
2023-03-07T04:43:48.206Z,2.52
2023-03-07T04:44:21.172Z,2.53
2023-03-07T04:44:52.840Z,2.54
2023-03-07T04:45:24.526Z,2.55
2023-03-07T04:45:56.182Z,2.51
2023-03-07T04:46:28.247Z,2.51
2023-03-07T04:47:00.098Z,2.47
2023-03-07T04:47:31.731Z,2.50
2023-03-07T04:48:04.410Z,2.52
2023-03-07T04:48:36.083Z,2.52
2023-03-07T04:49:07.757Z,2.48
2023-03-07T04:49:39.429Z,2.49
2023-03-07T04:50:11.255Z,2.51
2023-03-07T04:50:42.931Z,2.52
2023-03-07T04:51:15.255Z,2.50
2023-03-07T04:51:46.948Z,2.50
2023-03-07T04:52:18.660Z,2.50
2023-03-07T04:52:50.603Z,2.52
2023-03-07T04:53:22.524Z,2.51
2023-03-07T04:53:54.251Z,2.47
2023-03-07T04:54:25.867Z,2.45
2023-03-07T04:54:57.552Z,2.46
2023-03-07T04:55:29.218Z,2.52
2023-03-07T04:56:03.402Z,2.49
2023-03-07T04:56:35.096Z,2.49
2023-03-07T04:57:06.764Z,2.49
2023-03-07T04:57:38.648Z,2.49
2023-03-07T04:58:13.088Z,2.52
2023-03-07T04:58:45.269Z,2.46
2023-03-07T04:59:16.899Z,2.49
2023-03-07T04:59:48.541Z,2.52
2023-03-07T05:00:20.573Z,2.50
2023-03-07T05:00:52.207Z,2.53
2023-03-07T05:01:24.082Z,2.53
2023-03-07T05:01:55.725Z,2.54
2023-03-07T05:02:27.350Z,2.56
2023-03-07T05:03:02.280Z,2.55
2023-03-07T05:03:34.988Z,2.56
2023-03-07T05:04:06.656Z,2.60
2023-03-07T05:04:38.478Z,2.59
2023-03-07T05:05:10.530Z,2.63
2023-03-07T05:05:42.219Z,2.61
2023-03-07T05:06:15.327Z,2.65
2023-03-07T05:06:47.216Z,2.59
2023-03-07T05:07:18.928Z,2.57
2023-03-07T05:07:50.847Z,2.55
2023-03-07T05:08:22.673Z,2.53
2023-03-07T05:08:54.357Z,2.52
2023-03-07T05:09:26.024Z,2.54
2023-03-07T05:09:57.918Z,2.49
2023-03-07T05:10:30.152Z,2.46
2023-03-07T05:11:02.590Z,2.51
2023-03-07T05:11:34.226Z,2.51
2023-03-07T05:12:06.081Z,2.52
2023-03-07T05:12:37.750Z,2.48
2023-03-07T05:13:09.444Z,2.50
2023-03-07T05:13:41.142Z,2.46
2023-03-07T05:14:12.776Z,2.48
2023-03-07T05:14:44.434Z,2.50
2023-03-07T05:15:16.133Z,2.45
2023-03-07T05:15:56.881Z,2.46
2023-03-07T05:16:28.586Z,2.42
2023-03-07T05:17:00.212Z,2.42
2023-03-07T05:17:31.911Z,2.45
2023-03-07T05:18:03.692Z,2.44
2023-03-07T05:18:35.376Z,2.45
2023-03-07T05:19:07.020Z,2.43
2023-03-07T05:19:38.669Z,2.43
2023-03-07T05:20:11.974Z,2.43
2023-03-07T05:20:43.639Z,2.43
2023-03-07T05:21:15.337Z,2.37
2023-03-07T05:21:49.154Z,2.37
2023-03-07T05:22:21.140Z,2.35
2023-03-07T05:22:53.005Z,2.32
2023-03-07T05:23:24.787Z,2.26
2023-03-07T05:23:56.432Z,2.33
2023-03-07T05:24:28.143Z,2.34
2023-03-07T05:24:59.976Z,2.34
2023-03-07T05:25:31.739Z,2.32
2023-03-07T05:26:03.818Z,2.31
2023-03-07T05:26:35.662Z,2.34
2023-03-07T05:27:07.312Z,2.34
2023-03-07T05:27:39.067Z,2.34
2023-03-07T05:28:10.745Z,2.35
2023-03-07T05:28:42.363Z,2.34
2023-03-07T05:29:14.009Z,2.32
2023-03-07T05:29:45.751Z,2.37
2023-03-07T05:30:18.292Z,2.35
2023-03-07T05:30:50.031Z,2.38
2023-03-07T05:31:21.782Z,2.38
2023-03-07T05:31:53.823Z,2.36
2023-03-07T05:32:25.763Z,2.34
2023-03-07T05:32:57.528Z,2.37
2023-03-07T05:33:29.209Z,2.35
2023-03-07T05:34:00.871Z,2.39
2023-03-07T05:34:32.536Z,2.38
2023-03-07T05:35:04.552Z,2.41
2023-03-07T05:35:36.212Z,2.41
2023-03-07T05:36:08.534Z,2.40
2023-03-07T05:36:40.206Z,2.41
2023-03-07T05:37:11.865Z,2.40
2023-03-07T05:37:43.522Z,2.39
2023-03-07T05:38:15.323Z,2.36
2023-03-07T05:38:46.963Z,2.35
2023-03-07T05:39:18.613Z,2.34
2023-03-07T05:39:50.276Z,2.36
2023-03-07T05:40:22.072Z,2.32
2023-03-07T05:40:53.722Z,2.34
2023-03-07T05:41:25.400Z,2.34
2023-03-07T05:41:57.029Z,2.31
2023-03-07T05:42:28.709Z,2.32
2023-03-07T05:43:00.383Z,2.32
2023-03-07T05:43:32.114Z,2.34
2023-03-07T05:44:03.876Z,2.35
2023-03-07T05:44:35.514Z,2.36
2023-03-07T05:45:07.966Z,2.33
2023-03-07T05:45:39.761Z,2.40
2023-03-07T05:46:11.459Z,2.37
2023-03-07T05:46:43.134Z,2.38
2023-03-07T05:47:14.771Z,2.40
2023-03-07T05:47:46.814Z,2.68
2023-03-07T05:48:18.618Z,2.68
2023-03-07T05:48:50.327Z,2.64
2023-03-07T05:49:22.479Z,2.59
2023-03-07T05:49:54.141Z,2.56
2023-03-07T05:50:26.003Z,2.56
2023-03-07T05:51:01.297Z,2.56
2023-03-07T05:51:33.010Z,2.60
2023-03-07T05:52:04.955Z,2.59
2023-03-07T05:52:36.702Z,2.61
2023-03-07T05:53:08.941Z,2.63
2023-03-07T05:53:40.670Z,2.64
2023-03-07T05:54:12.346Z,2.64
2023-03-07T05:54:44.045Z,2.62
2023-03-07T05:55:15.713Z,2.64
2023-03-07T05:55:47.359Z,2.64
2023-03-07T05:56:19.093Z,2.67
2023-03-07T05:56:50.731Z,2.69
2023-03-07T05:57:23.278Z,2.67
2023-03-07T05:57:54.971Z,2.69
2023-03-07T05:58:26.655Z,2.70
2023-03-07T05:58:58.329Z,2.68
2023-03-07T05:59:29.963Z,2.64
2023-03-07T06:00:01.630Z,2.65
2023-03-07T06:00:33.341Z,2.66
2023-03-07T06:01:05.637Z,2.63
2023-03-07T06:01:37.529Z,2.59
2023-03-07T06:02:09.225Z,2.62
2023-03-07T06:02:41.766Z,2.62
2023-03-07T06:03:13.484Z,2.62
2023-03-07T06:03:45.245Z,2.62
2023-03-07T06:04:16.976Z,2.59
2023-03-07T06:04:48.625Z,2.61
2023-03-07T06:05:20.260Z,2.64
2023-03-07T06:05:51.952Z,2.62
2023-03-07T06:06:23.615Z,2.64
2023-03-07T06:06:55.281Z,2.63
2023-03-07T06:07:27.255Z,2.63
2023-03-07T06:07:58.889Z,2.66
2023-03-07T06:08:30.553Z,2.64
2023-03-07T06:09:03.997Z,2.65
2023-03-07T06:09:35.625Z,2.66
2023-03-07T06:10:07.837Z,2.66
2023-03-07T06:10:40.320Z,2.68
2023-03-07T06:11:12.025Z,2.70
2023-03-07T06:11:43.821Z,2.72
2023-03-07T06:12:15.584Z,2.72
2023-03-07T06:12:56.044Z,2.69
2023-03-07T06:13:28.099Z,2.71
2023-03-07T06:13:59.938Z,2.71
2023-03-07T06:14:32.955Z,2.72
2023-03-07T06:15:05.620Z,2.73
2023-03-07T06:15:37.272Z,2.71
2023-03-07T06:16:08.955Z,2.67
2023-03-07T06:16:40.690Z,2.69
2023-03-07T06:17:12.350Z,2.72
2023-03-07T06:17:44.147Z,2.72
2023-03-07T06:18:15.857Z,2.71
2023-03-07T06:18:47.595Z,2.72
2023-03-07T06:19:19.398Z,2.74
2023-03-07T06:19:51.098Z,2.73
2023-03-07T06:20:22.760Z,2.76
2023-03-07T06:20:59.563Z,2.76
2023-03-07T06:21:31.504Z,2.79
2023-03-07T06:22:03.140Z,2.75
2023-03-07T06:22:37.733Z,2.78
2023-03-07T06:23:11.389Z,2.79
2023-03-07T06:23:44.652Z,2.81
2023-03-07T06:24:16.327Z,2.82
2023-03-07T06:24:47.996Z,2.85
2023-03-07T06:25:21.750Z,2.84
2023-03-07T06:25:53.959Z,2.84
2023-03-07T06:26:25.684Z,2.86
2023-03-07T06:26:57.757Z,2.86
2023-03-07T06:28:07.755Z,2.83
2023-03-07T06:28:40.404Z,2.90
2023-03-07T06:29:12.072Z,2.89
2023-03-07T06:29:43.889Z,2.91
2023-03-07T06:30:15.560Z,2.92
2023-03-07T06:30:47.638Z,2.93
2023-03-07T06:31:20.242Z,2.95
2023-03-07T06:31:51.953Z,2.96
2023-03-07T06:32:23.622Z,2.98
2023-03-07T06:32:55.949Z,3.01
2023-03-07T06:33:27.587Z,2.96
2023-03-07T06:33:59.236Z,2.99
2023-03-07T06:34:30.901Z,3.00
2023-03-07T06:35:02.577Z,3.01
2023-03-07T06:35:34.900Z,3.03
2023-03-07T06:36:11.970Z,3.05
2023-03-07T06:36:43.638Z,3.06
2023-03-07T06:37:15.329Z,3.09
2023-03-07T06:37:47.067Z,3.11
2023-03-07T06:38:18.793Z,3.11
2023-03-07T06:38:50.609Z,3.16
2023-03-07T06:39:22.959Z,3.16
2023-03-07T06:39:55.081Z,3.18
2023-03-07T06:40:26.724Z,3.20
2023-03-07T06:40:58.363Z,3.21
2023-03-07T06:41:30.281Z,3.26
2023-03-07T06:42:01.980Z,3.28
2023-03-07T06:42:33.714Z,3.25
2023-03-07T06:43:05.450Z,3.28
2023-03-07T06:43:37.124Z,3.26
2023-03-07T06:44:10.884Z,3.29
2023-03-07T06:44:43.868Z,3.31
2023-03-07T06:45:15.750Z,3.32
2023-03-07T06:45:47.445Z,3.32
2023-03-07T06:46:20.562Z,3.35
2023-03-07T06:46:52.193Z,3.38
2023-03-07T06:47:23.841Z,3.40
2023-03-07T06:47:55.485Z,3.44
2023-03-07T06:48:27.248Z,3.41
2023-03-07T06:48:58.889Z,3.46
2023-03-07T06:49:30.598Z,3.47
2023-03-07T06:50:02.681Z,3.48
2023-03-07T06:50:35.682Z,3.49
2023-03-07T06:51:08.996Z,3.52
2023-03-07T06:51:40.676Z,3.56
2023-03-07T06:52:12.310Z,3.56
2023-03-07T06:52:44.011Z,3.58
2023-03-07T06:53:16.130Z,3.61
2023-03-07T06:53:47.833Z,3.62
2023-03-07T06:54:19.718Z,3.62
2023-03-07T06:54:51.429Z,3.68
2023-03-07T06:55:23.295Z,3.72
2023-03-07T06:55:54.985Z,3.73
2023-03-07T06:56:29.839Z,3.70
2023-03-07T06:57:01.486Z,3.70
2023-03-07T06:57:34.422Z,3.69
2023-03-07T06:58:06.141Z,3.70
2023-03-07T06:58:37.814Z,3.70
2023-03-07T06:59:10.969Z,3.72
2023-03-07T06:59:42.631Z,3.75
2023-03-07T07:00:14.935Z,3.77
2023-03-07T07:00:46.570Z,3.78
2023-03-07T07:01:20.518Z,3.78
2023-03-07T07:01:52.461Z,3.80
2023-03-07T07:02:24.276Z,3.77
2023-03-07T07:02:56.572Z,3.82
2023-03-07T07:03:28.420Z,3.82
2023-03-07T07:04:00.124Z,3.79
2023-03-07T07:04:32.627Z,3.82
2023-03-07T07:05:04.882Z,3.87
2023-03-07T07:05:36.526Z,3.88
2023-03-07T07:06:08.163Z,3.93
2023-03-07T07:06:39.894Z,3.92
2023-03-07T07:07:11.567Z,3.93
2023-03-07T07:07:43.252Z,3.96
2023-03-07T07:08:15.129Z,3.98
2023-03-07T07:08:46.793Z,3.96
2023-03-07T07:09:18.531Z,4.00
2023-03-07T07:09:50.297Z,4.00
2023-03-07T07:10:22.019Z,4.03
2023-03-07T07:10:53.662Z,4.06
2023-03-07T07:11:25.703Z,4.09
2023-03-07T07:11:57.386Z,4.12
2023-03-07T07:12:29.030Z,4.10
2023-03-07T07:13:00.946Z,4.10
2023-03-07T07:13:32.671Z,4.14
2023-03-07T07:14:04.329Z,4.16
2023-03-07T07:14:35.985Z,4.18
2023-03-07T07:15:08.372Z,4.18
2023-03-07T07:15:39.996Z,4.23
2023-03-07T07:16:11.854Z,4.24
2023-03-07T07:16:43.602Z,4.27
2023-03-07T07:17:15.645Z,4.30
2023-03-07T07:17:47.330Z,4.30